sensor_id;sensor_type;location;lat;lon;timestamp;P1;durP1;ratioP1;P2;durP2;ratioP2
78927;SDS011;68322;22.726;113.540;2023-03-23T00:02:23;47.95;;;22.35;;
78927;SDS011;68322;22.726;113.540;2023-03-23T00:04:51;36.20;;;19.98;;
78927;SDS011;68322;22.726;113.540;2023-03-23T00:07:19;34.95;;;19.27;;
78927;SDS011;68322;22.726;113.540;2023-03-23T00:09:53;35.67;;;21.30;;
78927;SDS011;68322;22.726;113.540;2023-03-23T00:12:20;37.22;;;20.42;;
78927;SDS011;68322;22.726;113.540;2023-03-23T00:15:07;33.45;;;18.95;;
78927;SDS011;68322;22.726;113.540;2023-03-23T00:17:38;39.67;;;19.42;;
78927;SDS011;68322;22.726;113.540;2023-03-23T00:20:08;34.15;;;19.42;;
78927;SDS011;68322;22.726;113.540;2023-03-23T00:22:37;38.65;;;20.20;;
78927;SDS011;68322;22.726;113.540;2023-03-23T00:25:06;30.77;;;19.95;;
78927;SDS011;68322;22.726;113.540;2023-03-23T00:27:33;35.00;;;20.33;;
78927;SDS011;68322;22.726;113.540;2023-03-23T00:30:00;43.70;;;21.35;;
78927;SDS011;68322;22.726;113.540;2023-03-23T00:32:27;30.52;;;20.80;;
78927;SDS011;68322;22.726;113.540;2023-03-23T00:34:54;44.33;;;20.90;;
78927;SDS011;68322;22.726;113.540;2023-03-23T00:37:21;31.52;;;19.13;;
78927;SDS011;68322;22.726;113.540;2023-03-23T00:39:48;30.15;;;18.40;;
78927;SDS011;68322;22.726;113.540;2023-03-23T00:42:17;30.63;;;18.52;;
78927;SDS011;68322;22.726;113.540;2023-03-23T00:44:44;34.47;;;18.70;;
78927;SDS011;68322;22.726;113.540;2023-03-23T00:47:11;35.88;;;19.30;;
78927;SDS011;68322;22.726;113.540;2023-03-23T00:49:38;29.52;;;18.25;;
78927;SDS011;68322;22.726;113.540;2023-03-23T00:52:09;32.42;;;18.77;;
78927;SDS011;68322;22.726;113.540;2023-03-23T00:54:37;32.83;;;19.80;;
78927;SDS011;68322;22.726;113.540;2023-03-23T00:57:04;31.42;;;17.85;;
78927;SDS011;68322;22.726;113.540;2023-03-23T00:59:31;31.98;;;18.77;;
78927;SDS011;68322;22.726;113.540;2023-03-23T01:01:58;38.90;;;18.77;;
78927;SDS011;68322;22.726;113.540;2023-03-23T01:04:25;30.95;;;18.85;;
78927;SDS011;68322;22.726;113.540;2023-03-23T01:09:21;31.58;;;18.73;;
78927;SDS011;68322;22.726;113.540;2023-03-23T01:11:49;33.08;;;19.30;;
78927;SDS011;68322;22.726;113.540;2023-03-23T01:14:17;32.42;;;18.13;;
78927;SDS011;68322;22.726;113.540;2023-03-23T01:16:44;28.48;;;17.63;;
78927;SDS011;68322;22.726;113.540;2023-03-23T01:19:10;31.75;;;18.85;;
78927;SDS011;68322;22.726;113.540;2023-03-23T01:21:37;31.92;;;18.70;;
78927;SDS011;68322;22.726;113.540;2023-03-23T01:24:04;32.85;;;18.73;;
78927;SDS011;68322;22.726;113.540;2023-03-23T01:26:31;28.55;;;18.48;;
78927;SDS011;68322;22.726;113.540;2023-03-23T01:28:58;29.88;;;18.02;;
78927;SDS011;68322;22.726;113.540;2023-03-23T01:31:25;30.13;;;18.55;;
78927;SDS011;68322;22.726;113.540;2023-03-23T01:33:53;30.00;;;18.67;;
78927;SDS011;68322;22.726;113.540;2023-03-23T01:36:22;28.50;;;17.25;;
78927;SDS011;68322;22.726;113.540;2023-03-23T01:38:49;33.25;;;18.50;;
78927;SDS011;68322;22.726;113.540;2023-03-23T01:41:17;36.05;;;18.15;;
78927;SDS011;68322;22.726;113.540;2023-03-23T01:43:53;30.88;;;18.13;;
78927;SDS011;68322;22.726;113.540;2023-03-23T01:46:20;28.00;;;17.98;;
78927;SDS011;68322;22.726;113.540;2023-03-23T01:48:47;33.15;;;18.63;;
78927;SDS011;68322;22.726;113.540;2023-03-23T01:51:15;28.67;;;17.15;;
78927;SDS011;68322;22.726;113.540;2023-03-23T01:53:48;33.95;;;18.92;;
78927;SDS011;68322;22.726;113.540;2023-03-23T01:56:18;27.63;;;18.17;;
78927;SDS011;68322;22.726;113.540;2023-03-23T01:58:45;31.90;;;17.25;;
78927;SDS011;68322;22.726;113.540;2023-03-23T02:01:13;28.30;;;16.65;;
78927;SDS011;68322;22.726;113.540;2023-03-23T02:03:42;30.98;;;18.52;;
78927;SDS011;68322;22.726;113.540;2023-03-23T02:06:10;30.27;;;19.00;;
78927;SDS011;68322;22.726;113.540;2023-03-23T02:08:37;33.90;;;19.98;;
78927;SDS011;68322;22.726;113.540;2023-03-23T02:11:12;32.17;;;18.67;;
78927;SDS011;68322;22.726;113.540;2023-03-23T02:13:39;29.98;;;17.80;;
78927;SDS011;68322;22.726;113.540;2023-03-23T02:16:25;32.85;;;19.52;;
78927;SDS011;68322;22.726;113.540;2023-03-23T02:31:40;37.28;;;18.92;;
78927;SDS011;68322;22.726;113.540;2023-03-23T02:41:45;29.30;;;18.75;;
78927;SDS011;68322;22.726;113.540;2023-03-23T02:44:12;28.58;;;19.48;;
78927;SDS011;68322;22.726;113.540;2023-03-23T02:46:40;32.33;;;18.40;;
78927;SDS011;68322;22.726;113.540;2023-03-23T02:49:08;35.70;;;18.75;;
78927;SDS011;68322;22.726;113.540;2023-03-23T02:51:36;29.73;;;17.40;;
78927;SDS011;68322;22.726;113.540;2023-03-23T02:54:03;34.50;;;19.88;;
78927;SDS011;68322;22.726;113.540;2023-03-23T02:56:31;29.42;;;19.60;;
78927;SDS011;68322;22.726;113.540;2023-03-23T02:58:58;40.25;;;20.95;;
78927;SDS011;68322;22.726;113.540;2023-03-23T03:03:54;33.03;;;19.10;;
78927;SDS011;68322;22.726;113.540;2023-03-23T03:11:56;40.60;;;20.20;;
78927;SDS011;68322;22.726;113.540;2023-03-23T03:14:26;30.77;;;19.35;;
78927;SDS011;68322;22.726;113.540;2023-03-23T03:19:23;26.63;;;18.90;;
78927;SDS011;68322;22.726;113.540;2023-03-23T03:21:51;30.45;;;18.05;;
78927;SDS011;68322;22.726;113.540;2023-03-23T03:24:21;24.83;;;17.67;;
78927;SDS011;68322;22.726;113.540;2023-03-23T03:29:18;33.58;;;19.17;;
78927;SDS011;68322;22.726;113.540;2023-03-23T03:31:46;28.00;;;18.55;;
78927;SDS011;68322;22.726;113.540;2023-03-23T03:34:14;25.95;;;19.75;;
78927;SDS011;68322;22.726;113.540;2023-03-23T03:36:43;29.92;;;19.85;;
78927;SDS011;68322;22.726;113.540;2023-03-23T03:39:11;27.80;;;18.92;;
78927;SDS011;68322;22.726;113.540;2023-03-23T03:41:42;30.30;;;18.73;;
78927;SDS011;68322;22.726;113.540;2023-03-23T03:44:11;33.65;;;20.75;;
78927;SDS011;68322;22.726;113.540;2023-03-23T03:46:38;28.98;;;19.10;;
78927;SDS011;68322;22.726;113.540;2023-03-23T03:49:06;26.98;;;16.67;;
78927;SDS011;68322;22.726;113.540;2023-03-23T03:51:34;27.85;;;19.60;;
78927;SDS011;68322;22.726;113.540;2023-03-23T03:54:02;33.03;;;20.02;;
78927;SDS011;68322;22.726;113.540;2023-03-23T03:56:29;28.63;;;18.33;;
78927;SDS011;68322;22.726;113.540;2023-03-23T03:58:56;27.10;;;17.40;;
78927;SDS011;68322;22.726;113.540;2023-03-23T04:01:24;31.65;;;18.90;;
78927;SDS011;68322;22.726;113.540;2023-03-23T04:03:54;26.95;;;18.95;;
78927;SDS011;68322;22.726;113.540;2023-03-23T04:06:21;29.30;;;17.30;;
78927;SDS011;68322;22.726;113.540;2023-03-23T04:08:49;30.50;;;19.63;;
78927;SDS011;68322;22.726;113.540;2023-03-23T04:11:15;32.20;;;18.23;;
78927;SDS011;68322;22.726;113.540;2023-03-23T04:13:42;31.33;;;20.40;;
78927;SDS011;68322;22.726;113.540;2023-03-23T04:16:09;26.98;;;18.73;;
78927;SDS011;68322;22.726;113.540;2023-03-23T04:18:36;29.20;;;19.45;;
78927;SDS011;68322;22.726;113.540;2023-03-23T04:21:04;32.70;;;19.40;;
78927;SDS011;68322;22.726;113.540;2023-03-23T04:23:33;22.98;;;18.23;;
78927;SDS011;68322;22.726;113.540;2023-03-23T04:26:01;26.65;;;18.73;;
78927;SDS011;68322;22.726;113.540;2023-03-23T04:28:28;24.55;;;18.10;;
78927;SDS011;68322;22.726;113.540;2023-03-23T04:30:59;30.30;;;19.52;;
78927;SDS011;68322;22.726;113.540;2023-03-23T04:33:27;30.67;;;19.48;;
78927;SDS011;68322;22.726;113.540;2023-03-23T04:35:56;37.17;;;20.52;;
78927;SDS011;68322;22.726;113.540;2023-03-23T04:38:23;29.77;;;19.58;;
78927;SDS011;68322;22.726;113.540;2023-03-23T04:40:51;29.35;;;18.80;;
78927;SDS011;68322;22.726;113.540;2023-03-23T04:43:19;30.65;;;19.48;;
78927;SDS011;68322;22.726;113.540;2023-03-23T04:45:58;31.92;;;18.88;;
78927;SDS011;68322;22.726;113.540;2023-03-23T04:48:28;24.60;;;18.42;;
78927;SDS011;68322;22.726;113.540;2023-03-23T04:50:55;27.52;;;17.88;;
78927;SDS011;68322;22.726;113.540;2023-03-23T04:53:27;28.40;;;17.35;;
78927;SDS011;68322;22.726;113.540;2023-03-23T04:55:53;28.45;;;18.17;;
78927;SDS011;68322;22.726;113.540;2023-03-23T04:58:20;28.80;;;18.73;;
78927;SDS011;68322;22.726;113.540;2023-03-23T05:00:49;27.83;;;17.48;;
78927;SDS011;68322;22.726;113.540;2023-03-23T05:03:19;26.50;;;18.30;;
78927;SDS011;68322;22.726;113.540;2023-03-23T05:05:46;27.38;;;18.55;;
78927;SDS011;68322;22.726;113.540;2023-03-23T05:08:18;30.35;;;18.30;;
78927;SDS011;68322;22.726;113.540;2023-03-23T05:10:55;24.48;;;17.15;;
78927;SDS011;68322;22.726;113.540;2023-03-23T05:13:23;26.83;;;17.35;;
78927;SDS011;68322;22.726;113.540;2023-03-23T05:15:53;28.38;;;18.02;;
78927;SDS011;68322;22.726;113.540;2023-03-23T05:18:20;24.23;;;16.10;;
78927;SDS011;68322;22.726;113.540;2023-03-23T05:20:47;27.52;;;17.48;;
78927;SDS011;68322;22.726;113.540;2023-03-23T05:23:14;27.63;;;17.90;;
78927;SDS011;68322;22.726;113.540;2023-03-23T05:25:41;30.08;;;18.25;;
78927;SDS011;68322;22.726;113.540;2023-03-23T05:28:08;27.00;;;16.83;;
78927;SDS011;68322;22.726;113.540;2023-03-23T05:30:36;23.23;;;15.43;;
78927;SDS011;68322;22.726;113.540;2023-03-23T05:33:03;27.65;;;18.48;;
78927;SDS011;68322;22.726;113.540;2023-03-23T05:35:30;24.02;;;18.92;;
78927;SDS011;68322;22.726;113.540;2023-03-23T05:37:57;26.73;;;17.30;;
78927;SDS011;68322;22.726;113.540;2023-03-23T05:40:24;29.13;;;19.35;;
78927;SDS011;68322;22.726;113.540;2023-03-23T05:42:51;32.30;;;19.70;;
78927;SDS011;68322;22.726;113.540;2023-03-23T05:45:18;26.10;;;18.83;;
78927;SDS011;68322;22.726;113.540;2023-03-23T05:47:45;29.33;;;18.90;;
78927;SDS011;68322;22.726;113.540;2023-03-23T05:50:11;21.80;;;16.83;;
78927;SDS011;68322;22.726;113.540;2023-03-23T05:52:38;23.80;;;17.17;;
78927;SDS011;68322;22.726;113.540;2023-03-23T05:55:07;28.42;;;17.83;;
78927;SDS011;68322;22.726;113.540;2023-03-23T05:57:34;24.35;;;17.25;;
78927;SDS011;68322;22.726;113.540;2023-03-23T06:00:00;23.02;;;18.13;;
78927;SDS011;68322;22.726;113.540;2023-03-23T06:02:47;24.20;;;17.88;;
78927;SDS011;68322;22.726;113.540;2023-03-23T06:05:15;28.02;;;17.67;;
78927;SDS011;68322;22.726;113.540;2023-03-23T06:07:42;25.42;;;17.50;;
78927;SDS011;68322;22.726;113.540;2023-03-23T06:10:09;29.38;;;18.80;;
78927;SDS011;68322;22.726;113.540;2023-03-23T06:12:38;24.05;;;16.13;;
78927;SDS011;68322;22.726;113.540;2023-03-23T06:15:06;24.45;;;18.58;;
78927;SDS011;68322;22.726;113.540;2023-03-23T06:17:34;28.38;;;17.35;;
78927;SDS011;68322;22.726;113.540;2023-03-23T06:20:02;24.35;;;17.30;;
78927;SDS011;68322;22.726;113.540;2023-03-23T06:22:29;22.08;;;14.80;;
78927;SDS011;68322;22.726;113.540;2023-03-23T06:24:57;25.13;;;16.13;;
78927;SDS011;68322;22.726;113.540;2023-03-23T06:27:24;25.83;;;16.58;;
78927;SDS011;68322;22.726;113.540;2023-03-23T06:29:52;23.95;;;14.52;;
78927;SDS011;68322;22.726;113.540;2023-03-23T06:32:22;26.80;;;16.45;;
78927;SDS011;68322;22.726;113.540;2023-03-23T06:34:49;25.45;;;17.08;;
78927;SDS011;68322;22.726;113.540;2023-03-23T06:37:15;27.02;;;14.98;;
78927;SDS011;68322;22.726;113.540;2023-03-23T06:39:43;27.98;;;17.10;;
78927;SDS011;68322;22.726;113.540;2023-03-23T06:42:10;24.73;;;15.00;;
78927;SDS011;68322;22.726;113.540;2023-03-23T06:44:37;29.50;;;15.07;;
78927;SDS011;68322;22.726;113.540;2023-03-23T06:47:05;18.95;;;12.90;;
78927;SDS011;68322;22.726;113.540;2023-03-23T06:49:33;33.17;;;16.65;;
78927;SDS011;68322;22.726;113.540;2023-03-23T06:52:00;21.73;;;14.88;;
78927;SDS011;68322;22.726;113.540;2023-03-23T06:54:28;23.80;;;14.85;;
78927;SDS011;68322;22.726;113.540;2023-03-23T06:56:55;27.27;;;15.38;;
78927;SDS011;68322;22.726;113.540;2023-03-23T07:01:50;25.42;;;15.43;;
78927;SDS011;68322;22.726;113.540;2023-03-23T07:04:17;27.67;;;14.95;;
78927;SDS011;68322;22.726;113.540;2023-03-23T07:06:43;27.55;;;13.95;;
78927;SDS011;68322;22.726;113.540;2023-03-23T07:09:11;23.08;;;12.40;;
78927;SDS011;68322;22.726;113.540;2023-03-23T07:11:37;26.67;;;14.18;;
78927;SDS011;68322;22.726;113.540;2023-03-23T07:14:04;18.65;;;12.93;;
78927;SDS011;68322;22.726;113.540;2023-03-23T07:16:31;21.92;;;13.70;;
78927;SDS011;68322;22.726;113.540;2023-03-23T07:19:01;26.23;;;14.10;;
78927;SDS011;68322;22.726;113.540;2023-03-23T07:21:28;25.65;;;14.60;;
78927;SDS011;68322;22.726;113.540;2023-03-23T07:23:55;23.67;;;11.88;;
78927;SDS011;68322;22.726;113.540;2023-03-23T07:26:21;25.27;;;13.50;;
78927;SDS011;68322;22.726;113.540;2023-03-23T07:28:48;24.27;;;14.10;;
78927;SDS011;68322;22.726;113.540;2023-03-23T07:31:16;27.48;;;13.25;;
78927;SDS011;68322;22.726;113.540;2023-03-23T07:33:43;25.80;;;13.60;;
78927;SDS011;68322;22.726;113.540;2023-03-23T07:36:10;21.60;;;12.45;;
78927;SDS011;68322;22.726;113.540;2023-03-23T07:38:39;27.23;;;13.63;;
78927;SDS011;68322;22.726;113.540;2023-03-23T07:41:06;22.20;;;12.40;;
78927;SDS011;68322;22.726;113.540;2023-03-23T07:43:33;27.92;;;12.93;;
78927;SDS011;68322;22.726;113.540;2023-03-23T07:46:00;28.00;;;13.13;;
78927;SDS011;68322;22.726;113.540;2023-03-23T07:48:27;27.42;;;13.05;;
78927;SDS011;68322;22.726;113.540;2023-03-23T07:50:54;28.42;;;13.20;;
78927;SDS011;68322;22.726;113.540;2023-03-23T07:53:20;24.10;;;12.15;;
78927;SDS011;68322;22.726;113.540;2023-03-23T07:55:48;21.70;;;11.55;;
78927;SDS011;68322;22.726;113.540;2023-03-23T07:58:15;23.80;;;12.27;;
78927;SDS011;68322;22.726;113.540;2023-03-23T08:00:45;27.60;;;13.15;;
78927;SDS011;68322;22.726;113.540;2023-03-23T08:03:14;22.85;;;13.60;;
78927;SDS011;68322;22.726;113.540;2023-03-23T08:05:45;24.83;;;12.63;;
78927;SDS011;68322;22.726;113.540;2023-03-23T08:08:12;20.35;;;10.57;;
78927;SDS011;68322;22.726;113.540;2023-03-23T08:10:39;18.27;;;12.45;;
78927;SDS011;68322;22.726;113.540;2023-03-23T08:13:06;19.38;;;12.00;;
78927;SDS011;68322;22.726;113.540;2023-03-23T08:15:34;21.88;;;11.98;;
78927;SDS011;68322;22.726;113.540;2023-03-23T08:18:04;21.65;;;11.52;;
78927;SDS011;68322;22.726;113.540;2023-03-23T08:22:58;21.15;;;12.68;;
78927;SDS011;68322;22.726;113.540;2023-03-23T08:25:25;26.58;;;12.73;;
78927;SDS011;68322;22.726;113.540;2023-03-23T08:27:53;31.13;;;13.10;;
78927;SDS011;68322;22.726;113.540;2023-03-23T08:30:20;23.20;;;11.88;;
78927;SDS011;68322;22.726;113.540;2023-03-23T08:32:54;19.35;;;11.55;;
78927;SDS011;68322;22.726;113.540;2023-03-23T08:35:21;23.73;;;12.35;;
78927;SDS011;68322;22.726;113.540;2023-03-23T08:38:10;26.15;;;12.10;;
78927;SDS011;68322;22.726;113.540;2023-03-23T08:40:37;26.20;;;11.85;;
78927;SDS011;68322;22.726;113.540;2023-03-23T08:43:04;33.75;;;11.82;;
78927;SDS011;68322;22.726;113.540;2023-03-23T08:45:31;27.23;;;11.68;;
78927;SDS011;68322;22.726;113.540;2023-03-23T08:47:58;24.60;;;11.60;;
78927;SDS011;68322;22.726;113.540;2023-03-23T08:50:26;27.13;;;11.02;;
78927;SDS011;68322;22.726;113.540;2023-03-23T08:52:55;25.65;;;12.02;;
78927;SDS011;68322;22.726;113.540;2023-03-23T08:55:22;20.80;;;12.93;;
78927;SDS011;68322;22.726;113.540;2023-03-23T08:57:49;19.05;;;11.50;;
78927;SDS011;68322;22.726;113.540;2023-03-23T09:00:17;21.40;;;11.05;;
78927;SDS011;68322;22.726;113.540;2023-03-23T09:02:46;20.60;;;11.27;;
78927;SDS011;68322;22.726;113.540;2023-03-23T09:05:13;20.55;;;10.60;;
78927;SDS011;68322;22.726;113.540;2023-03-23T09:07:41;25.23;;;11.32;;
78927;SDS011;68322;22.726;113.540;2023-03-23T09:10:08;26.75;;;10.98;;
78927;SDS011;68322;22.726;113.540;2023-03-23T09:12:35;22.95;;;10.95;;
78927;SDS011;68322;22.726;113.540;2023-03-23T09:15:06;26.25;;;10.82;;
78927;SDS011;68322;22.726;113.540;2023-03-23T09:17:41;24.15;;;10.73;;
78927;SDS011;68322;22.726;113.540;2023-03-23T09:20:09;30.00;;;12.43;;
78927;SDS011;68322;22.726;113.540;2023-03-23T09:22:39;29.02;;;11.10;;
78927;SDS011;68322;22.726;113.540;2023-03-23T09:25:07;28.40;;;11.15;;
78927;SDS011;68322;22.726;113.540;2023-03-23T09:27:35;23.63;;;11.38;;
78927;SDS011;68322;22.726;113.540;2023-03-23T09:30:05;24.58;;;10.73;;
78927;SDS011;68322;22.726;113.540;2023-03-23T09:32:32;24.55;;;10.85;;
78927;SDS011;68322;22.726;113.540;2023-03-23T09:35:00;24.55;;;10.65;;
78927;SDS011;68322;22.726;113.540;2023-03-23T09:37:28;20.40;;;9.88;;
78927;SDS011;68322;22.726;113.540;2023-03-23T09:39:55;26.55;;;10.85;;
78927;SDS011;68322;22.726;113.540;2023-03-23T09:42:30;23.25;;;9.60;;
78927;SDS011;68322;22.726;113.540;2023-03-23T09:47:31;24.75;;;9.48;;
78927;SDS011;68322;22.726;113.540;2023-03-23T09:50:10;20.70;;;10.40;;
78927;SDS011;68322;22.726;113.540;2023-03-23T09:55:09;20.10;;;9.75;;
78927;SDS011;68322;22.726;113.540;2023-03-23T10:00:21;21.52;;;10.23;;
78927;SDS011;68322;22.726;113.540;2023-03-23T10:03:05;20.88;;;10.35;;
78927;SDS011;68322;22.726;113.540;2023-03-23T10:05:34;20.83;;;9.23;;
78927;SDS011;68322;22.726;113.540;2023-03-23T10:15:56;31.85;;;11.43;;
78927;SDS011;68322;22.726;113.540;2023-03-23T10:18:29;17.70;;;9.25;;
78927;SDS011;68322;22.726;113.540;2023-03-23T10:20:58;25.10;;;10.43;;
78927;SDS011;68322;22.726;113.540;2023-03-23T10:28:37;24.05;;;9.35;;
78927;SDS011;68322;22.726;113.540;2023-03-23T10:31:05;23.70;;;10.05;;
78927;SDS011;68322;22.726;113.540;2023-03-23T10:38:36;33.10;;;11.80;;
78927;SDS011;68322;22.726;113.540;2023-03-23T10:41:13;18.85;;;9.30;;
78927;SDS011;68322;22.726;113.540;2023-03-23T10:43:41;20.17;;;9.45;;
78927;SDS011;68322;22.726;113.540;2023-03-23T10:48:39;22.25;;;10.02;;
78927;SDS011;68322;22.726;113.540;2023-03-23T10:51:09;18.40;;;8.63;;
78927;SDS011;68322;22.726;113.540;2023-03-23T10:53:38;27.35;;;9.57;;
78927;SDS011;68322;22.726;113.540;2023-03-23T10:56:17;20.77;;;8.75;;
78927;SDS011;68322;22.726;113.540;2023-03-23T10:58:46;17.15;;;9.10;;
78927;SDS011;68322;22.726;113.540;2023-03-23T11:01:12;23.55;;;9.25;;
78927;SDS011;68322;22.726;113.540;2023-03-23T11:03:41;18.80;;;9.15;;
78927;SDS011;68322;22.726;113.540;2023-03-23T11:06:18;17.30;;;8.98;;
78927;SDS011;68322;22.726;113.540;2023-03-23T11:09:19;25.10;;;10.38;;
78927;SDS011;68322;22.726;113.540;2023-03-23T11:11:39;24.35;;;10.05;;
78927;SDS011;68322;22.726;113.540;2023-03-23T11:14:16;15.65;;;8.55;;
78927;SDS011;68322;22.726;113.540;2023-03-23T11:16:51;18.25;;;7.60;;
78927;SDS011;68322;22.726;113.540;2023-03-23T11:19:25;19.45;;;9.25;;
78927;SDS011;68322;22.726;113.540;2023-03-23T11:21:53;18.45;;;8.70;;
78927;SDS011;68322;22.726;113.540;2023-03-23T11:24:24;21.67;;;9.35;;
78927;SDS011;68322;22.726;113.540;2023-03-23T11:26:52;19.70;;;9.57;;
78927;SDS011;68322;22.726;113.540;2023-03-23T11:29:20;20.00;;;8.52;;
78927;SDS011;68322;22.726;113.540;2023-03-23T11:31:49;23.00;;;9.65;;
78927;SDS011;68322;22.726;113.540;2023-03-23T11:34:21;20.27;;;9.48;;
78927;SDS011;68322;22.726;113.540;2023-03-23T11:36:51;19.10;;;8.27;;
78927;SDS011;68322;22.726;113.540;2023-03-23T11:39:25;22.35;;;9.18;;
78927;SDS011;68322;22.726;113.540;2023-03-23T11:41:53;19.00;;;8.77;;
78927;SDS011;68322;22.726;113.540;2023-03-23T11:44:23;20.05;;;9.00;;
78927;SDS011;68322;22.726;113.540;2023-03-23T11:46:59;20.40;;;7.72;;
78927;SDS011;68322;22.726;113.540;2023-03-23T11:54:46;20.95;;;7.80;;
78927;SDS011;68322;22.726;113.540;2023-03-23T11:57:14;21.58;;;8.27;;
78927;SDS011;68322;22.726;113.540;2023-03-23T11:59:41;19.80;;;8.27;;
78927;SDS011;68322;22.726;113.540;2023-03-23T12:10:57;20.98;;;7.18;;
78927;SDS011;68322;22.726;113.540;2023-03-23T12:20:44;17.17;;;6.13;;
78927;SDS011;68322;22.726;113.540;2023-03-23T12:23:22;16.42;;;7.88;;
78927;SDS011;68322;22.726;113.540;2023-03-23T12:25:52;19.77;;;7.72;;
78927;SDS011;68322;22.726;113.540;2023-03-23T12:33:45;18.00;;;7.35;;
78927;SDS011;68322;22.726;113.540;2023-03-23T12:36:54;19.67;;;7.13;;
78927;SDS011;68322;22.726;113.540;2023-03-23T12:41:54;17.40;;;6.80;;
78927;SDS011;68322;22.726;113.540;2023-03-23T12:44:27;16.80;;;7.47;;
78927;SDS011;68322;22.726;113.540;2023-03-23T12:49:38;20.60;;;8.25;;
78927;SDS011;68322;22.726;113.540;2023-03-23T12:54:47;16.92;;;7.18;;
78927;SDS011;68322;22.726;113.540;2023-03-23T12:57:21;19.30;;;7.07;;
78927;SDS011;68322;22.726;113.540;2023-03-23T12:59:54;18.13;;;7.07;;
78927;SDS011;68322;22.726;113.540;2023-03-23T13:04:52;16.75;;;7.20;;
78927;SDS011;68322;22.726;113.540;2023-03-23T13:07:24;18.35;;;7.75;;
78927;SDS011;68322;22.726;113.540;2023-03-23T13:09:55;26.95;;;7.13;;
78927;SDS011;68322;22.726;113.540;2023-03-23T13:12:25;16.55;;;7.03;;
78927;SDS011;68322;22.726;113.540;2023-03-23T13:14:59;13.07;;;7.47;;
78927;SDS011;68322;22.726;113.540;2023-03-23T13:17:32;28.88;;;8.05;;
78927;SDS011;68322;22.726;113.540;2023-03-23T13:20:30;18.45;;;8.32;;
78927;SDS011;68322;22.726;113.540;2023-03-23T13:23:02;16.17;;;6.80;;
78927;SDS011;68322;22.726;113.540;2023-03-23T13:28:12;15.15;;;7.32;;
78927;SDS011;68322;22.726;113.540;2023-03-23T13:31:22;17.17;;;6.72;;
78927;SDS011;68322;22.726;113.540;2023-03-23T13:33:45;21.05;;;7.07;;
78927;SDS011;68322;22.726;113.540;2023-03-23T13:36:13;20.35;;;7.85;;
78927;SDS011;68322;22.726;113.540;2023-03-23T13:38:49;15.98;;;7.20;;
78927;SDS011;68322;22.726;113.540;2023-03-23T13:41:18;16.75;;;7.22;;
78927;SDS011;68322;22.726;113.540;2023-03-23T13:43:47;20.08;;;7.05;;
78927;SDS011;68322;22.726;113.540;2023-03-23T13:48:46;13.57;;;6.45;;
78927;SDS011;68322;22.726;113.540;2023-03-23T13:53:50;17.55;;;7.78;;
78927;SDS011;68322;22.726;113.540;2023-03-23T13:59:04;14.60;;;7.00;;
78927;SDS011;68322;22.726;113.540;2023-03-23T14:01:34;24.50;;;8.00;;
78927;SDS011;68322;22.726;113.540;2023-03-23T14:04:06;24.15;;;7.47;;
78927;SDS011;68322;22.726;113.540;2023-03-23T14:06:36;18.48;;;7.35;;
78927;SDS011;68322;22.726;113.540;2023-03-23T14:09:09;18.58;;;7.40;;
78927;SDS011;68322;22.726;113.540;2023-03-23T14:14:23;14.02;;;6.90;;
78927;SDS011;68322;22.726;113.540;2023-03-23T14:16:51;18.20;;;7.18;;
78927;SDS011;68322;22.726;113.540;2023-03-23T14:19:28;13.95;;;5.97;;
78927;SDS011;68322;22.726;113.540;2023-03-23T14:22:02;17.52;;;6.50;;
78927;SDS011;68322;22.726;113.540;2023-03-23T14:24:33;19.42;;;6.65;;
78927;SDS011;68322;22.726;113.540;2023-03-23T14:29:42;12.07;;;6.47;;
78927;SDS011;68322;22.726;113.540;2023-03-23T14:32:18;17.70;;;7.22;;
78927;SDS011;68322;22.726;113.540;2023-03-23T14:34:54;17.92;;;7.13;;
78927;SDS011;68322;22.726;113.540;2023-03-23T14:37:23;19.13;;;6.22;;
78927;SDS011;68322;22.726;113.540;2023-03-23T14:39:52;20.02;;;6.95;;
78927;SDS011;68322;22.726;113.540;2023-03-23T14:42:27;16.63;;;6.22;;
78927;SDS011;68322;22.726;113.540;2023-03-23T14:44:55;8.65;;;5.70;;
78927;SDS011;68322;22.726;113.540;2023-03-23T14:47:23;18.20;;;6.88;;
78927;SDS011;68322;22.726;113.540;2023-03-23T14:49:55;18.85;;;7.35;;
78927;SDS011;68322;22.726;113.540;2023-03-23T14:52:24;19.05;;;7.55;;
78927;SDS011;68322;22.726;113.540;2023-03-23T14:55:06;17.35;;;6.88;;
78927;SDS011;68322;22.726;113.540;2023-03-23T14:57:34;13.38;;;6.43;;
78927;SDS011;68322;22.726;113.540;2023-03-23T15:00:01;16.55;;;6.82;;
78927;SDS011;68322;22.726;113.540;2023-03-23T15:02:32;21.08;;;8.20;;
78927;SDS011;68322;22.726;113.540;2023-03-23T15:05:03;17.08;;;7.90;;
78927;SDS011;68322;22.726;113.540;2023-03-23T15:07:35;16.88;;;7.70;;
78927;SDS011;68322;22.726;113.540;2023-03-23T15:10:08;17.45;;;7.88;;
78927;SDS011;68322;22.726;113.540;2023-03-23T15:12:39;17.50;;;8.02;;
78927;SDS011;68322;22.726;113.540;2023-03-23T15:15:06;20.05;;;8.20;;
78927;SDS011;68322;22.726;113.540;2023-03-23T15:17:44;20.77;;;8.32;;
78927;SDS011;68322;22.726;113.540;2023-03-23T15:20:25;14.65;;;8.10;;
78927;SDS011;68322;22.726;113.540;2023-03-23T15:23:45;17.55;;;8.27;;
78927;SDS011;68322;22.726;113.540;2023-03-23T15:26:06;16.70;;;8.88;;
78927;SDS011;68322;22.726;113.540;2023-03-23T15:28:39;17.20;;;9.13;;
78927;SDS011;68322;22.726;113.540;2023-03-23T15:31:06;22.30;;;9.98;;
78927;SDS011;68322;22.726;113.540;2023-03-23T15:33:34;18.90;;;8.32;;
78927;SDS011;68322;22.726;113.540;2023-03-23T15:36:05;13.77;;;8.20;;
78927;SDS011;68322;22.726;113.540;2023-03-23T15:38:35;18.10;;;8.50;;
78927;SDS011;68322;22.726;113.540;2023-03-23T15:41:22;14.63;;;8.60;;
78927;SDS011;68322;22.726;113.540;2023-03-23T15:43:52;22.95;;;9.05;;
78927;SDS011;68322;22.726;113.540;2023-03-23T15:46:20;20.88;;;9.25;;
78927;SDS011;68322;22.726;113.540;2023-03-23T15:51:14;14.23;;;9.00;;
78927;SDS011;68322;22.726;113.540;2023-03-23T15:53:42;21.38;;;9.82;;
78927;SDS011;68322;22.726;113.540;2023-03-23T15:56:10;19.10;;;8.57;;
78927;SDS011;68322;22.726;113.540;2023-03-23T15:58:39;20.75;;;9.35;;
78927;SDS011;68322;22.726;113.540;2023-03-23T16:01:07;17.02;;;8.75;;
78927;SDS011;68322;22.726;113.540;2023-03-23T16:03:37;13.13;;;7.90;;
78927;SDS011;68322;22.726;113.540;2023-03-23T16:06:05;18.42;;;9.07;;
78927;SDS011;68322;22.726;113.540;2023-03-23T16:08:32;22.20;;;9.00;;
78927;SDS011;68322;22.726;113.540;2023-03-23T16:11:06;16.42;;;8.00;;
78927;SDS011;68322;22.726;113.540;2023-03-23T16:13:32;15.38;;;8.75;;
78927;SDS011;68322;22.726;113.540;2023-03-23T16:15:59;20.73;;;9.73;;
78927;SDS011;68322;22.726;113.540;2023-03-23T16:18:27;19.13;;;8.68;;
78927;SDS011;68322;22.726;113.540;2023-03-23T16:20:54;24.83;;;9.68;;